Time;durP1;ratioP1;P1;durP2;ratioP2;P2;SDS_P1;SDS_P2;PMS_P1;PMS_P2;Temp;Humidity;BMP_temperature;BMP_pressure;BME280_temperature;BME280_humidity;BME280_pressure;Samples;Min_cycle;Max_cycle;Signal;HPM_P1;HPM_P2
2023/08/25 04:03:06;;;;;;;2.23;1.10;;;22.30;82.70;;;;;;4899630;29;20460;-77
2023/08/25 04:05:32;;;;;;;2.33;1.33;;;22.30;83.00;;;;;;4901319;29;20537;-77
2023/08/25 04:07:59;;;;;;;1.90;1.10;;;22.40;82.90;;;;;;4901316;29;20468;-77
2023/08/25 04:10:27;;;;;;;2.63;1.40;;;22.40;82.70;;;;;;4900938;29;20987;-78
2023/08/25 04:12:59;;;;;;;1.90;1.20;;;22.30;83.00;;;;;;4901238;29;20445;-77
2023/08/25 04:15:26;;;;;;;2.40;1.47;;;22.30;82.90;;;;;;4901263;29;20452;-77
2023/08/25 04:17:53;;;;;;;2.20;1.50;;;22.30;82.80;;;;;;4901120;29;20457;-76
2023/08/25 04:20:21;;;;;;;2.00;1.40;;;22.20;82.90;;;;;;4901142;29;20445;-75
2023/08/25 04:22:48;;;;;;;2.60;1.80;;;22.20;83.30;;;;;;4901060;29;20501;-77
2023/08/25 04:25:14;;;;;;;2.40;1.40;;;22.30;83.20;;;;;;4900957;29;20485;-77
2023/08/25 04:27:41;;;;;;;2.17;1.27;;;22.30;82.90;;;;;;4901049;29;20489;-77
2023/08/25 04:30:08;;;;;;;2.40;1.33;;;22.20;82.70;;;;;;4901521;29;20450;-76
2023/08/25 04:32:35;;;;;;;3.70;1.30;;;22.20;82.50;;;;;;4901098;29;20974;-77
2023/08/25 04:35:03;;;;;;;2.43;1.60;;;22.20;82.70;;;;;;4900892;29;20445;-77
2023/08/25 04:37:31;;;;;;;3.17;1.50;;;22.20;82.50;;;;;;4900974;29;20548;-77
2023/08/25 04:39:58;;;;;;;2.67;1.50;;;22.20;82.60;;;;;;4900830;29;20509;-78
2023/08/25 04:42:26;;;;;;;3.50;1.50;;;22.20;82.60;;;;;;4900357;29;20470;-77
2023/08/25 04:44:53;;;;;;;2.00;1.23;;;22.20;82.50;;;;;;4900662;29;20492;-76
2023/08/25 04:47:19;;;;;;;2.23;1.30;;;22.20;82.50;;;;;;4900640;29;20505;-77
2023/08/25 04:49:46;;;;;;;3.80;1.80;;;22.20;82.40;;;;;;4900616;29;20453;-77
2023/08/25 04:52:13;;;;;;;2.53;1.40;;;22.20;82.70;;;;;;4900504;29;20477;-77
2023/08/25 04:54:41;;;;;;;2.90;1.57;;;22.10;82.80;;;;;;4900522;29;20453;-77
2023/08/25 04:57:08;;;;;;;2.53;1.70;;;22.20;83.00;;;;;;4900371;29;20461;-77
2023/08/25 04:59:35;;;;;;;4.17;1.83;;;22.20;82.60;;;;;;4900408;29;20501;-77
2023/08/25 05:02:02;;;;;;;2.70;1.57;;;22.30;82.80;;;;;;4899676;29;20481;-77
2023/08/25 05:04:28;;;;;;;2.20;1.30;;;22.30;82.30;;;;;;4900276;29;20576;-77
2023/08/25 05:06:55;;;;;;;2.47;1.47;;;22.40;82.30;;;;;;4900288;29;20453;-76
2023/08/25 05:09:22;;;;;;;2.77;1.60;;;22.50;81.90;;;;;;4900270;29;20466;-77
2023/08/25 05:11:49;;;;;;;2.20;1.40;;;22.70;81.60;;;;;;4900155;29;20466;-77
2023/08/25 05:14:16;;;;;;;3.47;1.50;;;22.80;81.20;;;;;;4900207;29;20441;-77
2023/08/25 05:16:43;;;;;;;2.90;1.80;;;22.90;80.80;;;;;;4900078;29;20449;-78
2023/08/25 05:19:11;;;;;;;2.93;1.40;;;22.90;80.80;;;;;;4900036;29;20445;-77
2023/08/25 05:21:38;;;;;;;2.30;1.73;;;23.10;79.80;;;;;;4900020;29;20484;-77
2023/08/25 05:24:26;;;;;;;2.20;1.43;;;23.10;80.00;;;;;;4899990;29;20505;-76
2023/08/25 05:26:55;;;;;;;2.50;1.70;;;23.30;79.70;;;;;;4896697;29;20943;-77
2023/08/25 05:29:23;;;;;;;2.20;1.40;;;23.20;80.10;;;;;;4899959;29;20477;-77
2023/08/25 05:31:49;;;;;;;2.87;1.50;;;23.40;79.40;;;;;;4899756;29;20466;-78
2023/08/25 05:34:16;;;;;;;2.30;1.33;;;23.40;79.40;;;;;;4899502;29;20947;-77
2023/08/25 05:36:43;;;;;;;2.20;1.50;;;23.70;79.10;;;;;;4899823;29;20453;-77
2023/08/25 05:39:11;;;;;;;2.10;1.40;;;23.90;78.10;;;;;;4899779;29;20449;-77
2023/08/25 05:41:38;;;;;;;2.67;1.53;;;24.10;77.30;;;;;;4900028;29;20485;-77
2023/08/25 05:44:06;;;;;;;2.50;1.50;;;24.30;76.60;;;;;;4899611;29;20514;-77
2023/08/25 05:46:33;;;;;;;3.47;1.60;;;24.40;75.90;;;;;;4899558;29;20545;-77
2023/08/25 05:48:59;;;;;;;2.90;1.40;;;24.50;76.10;;;;;;4899447;29;20446;-77
2023/08/25 05:51:27;;;;;;;2.80;1.67;;;24.60;75.60;;;;;;4899302;29;20983;-77
2023/08/25 05:53:54;;;;;;;2.67;1.60;;;24.60;75.80;;;;;;4899486;29;20449;-76
2023/08/25 05:56:21;;;;;;;3.93;1.70;;;24.60;75.70;;;;;;4899419;29;20453;-77
2023/08/25 05:58:47;;;;;;;2.10;1.53;;;24.60;76.00;;;;;;4899377;29;20453;-77
2023/08/25 06:01:15;;;;;;;2.20;1.27;;;24.60;75.60;;;;;;4899012;29;20492;-77
2023/08/25 06:03:42;;;;;;;2.20;1.63;;;24.60;76.00;;;;;;4899244;29;20549;-77
2023/08/25 06:06:09;;;;;;;2.30;1.70;;;24.70;76.30;;;;;;4899180;29;20497;-75
2023/08/25 06:08:36;;;;;;;2.00;1.20;;;24.50;76.30;;;;;;4899192;29;20454;-77
2023/08/25 06:11:03;;;;;;;3.07;1.50;;;24.30;77.00;;;;;;4899083;29;20541;-77
2023/08/25 06:13:30;;;;;;;3.30;1.50;;;24.20;77.60;;;;;;4898562;29;20545;-77
2023/08/25 06:15:57;;;;;;;2.63;1.53;;;24.20;78.10;;;;;;4899045;29;20450;-77
2023/08/25 06:18:25;;;;;;;3.83;1.67;;;24.10;78.40;;;;;;4899032;29;20450;-77
2023/08/25 06:20:51;;;;;;;2.30;1.70;;;23.80;79.20;;;;;;4898621;29;20476;-77
2023/08/25 06:23:19;;;;;;;2.77;1.70;;;23.60;80.00;;;;;;4898920;29;20449;-77
2023/08/25 06:25:46;;;;;;;2.70;1.40;;;23.40;80.30;;;;;;4898808;29;20485;-77
2023/08/25 06:28:13;;;;;;;2.40;1.53;;;23.10;80.00;;;;;;4898792;29;20531;-77
2023/08/25 06:30:41;;;;;;;3.20;2.00;;;23.00;80.80;;;;;;4898775;29;20870;-76
2023/08/25 06:33:08;;;;;;;2.97;1.93;;;22.80;81.20;;;;;;4898738;29;20525;-77
2023/08/25 06:35:37;;;;;;;2.93;1.60;;;22.80;81.60;;;;;;4898733;29;20441;-77
2023/08/25 06:38:04;;;;;;;3.80;1.60;;;22.70;81.90;;;;;;4898578;29;20457;-76
2023/08/25 06:40:33;;;;;;;2.43;1.63;;;22.80;81.70;;;;;;4898606;29;20548;-77
2023/08/25 06:43:01;;;;;;;4.27;1.80;;;22.70;81.80;;;;;;4898570;29;20833;-77
2023/08/25 06:45:27;;;;;;;3.27;1.67;;;22.70;82.10;;;;;;4898293;29;20998;-75
2023/08/25 06:47:54;;;;;;;3.20;1.57;;;22.70;81.70;;;;;;4898285;29;20943;-77
2023/08/25 06:50:21;;;;;;;3.37;2.43;;;22.70;81.90;;;;;;4898401;29;20461;-77
2023/08/25 06:52:49;;;;;;;3.47;1.90;;;22.70;82.50;;;;;;4898377;29;20449;-77
2023/08/25 06:55:17;;;;;;;2.60;2.00;;;22.60;82.90;;;;;;4898416;29;20529;-77
2023/08/25 06:57:43;;;;;;;2.33;1.60;;;22.50;83.60;;;;;;4899245;29;20453;-77
2023/08/25 07:00:12;;;;;;;2.30;1.40;;;22.50;84.10;;;;;;4898310;29;20492;-76
2023/08/25 07:02:39;;;;;;;3.20;1.57;;;22.50;84.20;;;;;;4897747;29;20532;-74
2023/08/25 07:05:06;;;;;;;2.33;1.57;;;22.40;84.00;;;;;;4897877;29;21025;-77
2023/08/25 07:07:33;;;;;;;2.40;1.93;;;22.40;84.10;;;;;;4900969;29;20461;-78
2023/08/25 07:10:01;;;;;;;2.10;1.30;;;22.40;84.00;;;;;;4900310;29;20455;-78
2023/08/25 07:12:28;;;;;;;2.17;1.40;;;22.40;84.20;;;;;;4900584;29;20895;-79
2023/08/25 07:14:54;;;;;;;3.73;1.70;;;22.40;84.10;;;;;;4902775;29;20467;-77
2023/08/25 07:17:21;;;;;;;2.57;1.70;;;22.40;84.70;;;;;;4900480;29;20452;-78
2023/08/25 07:19:48;;;;;;;3.17;2.00;;;22.50;84.30;;;;;;4900743;29;20446;-77
2023/08/25 07:22:15;;;;;;;3.60;1.70;;;22.50;84.10;;;;;;4900189;29;20992;-78
2023/08/25 07:24:41;;;;;;;2.53;1.67;;;22.50;84.70;;;;;;4904323;29;20959;-77
2023/08/25 07:27:10;;;;;;;2.77;1.80;;;22.50;84.40;;;;;;4908745;29;20496;-79
2023/08/25 07:29:37;;;;;;;2.40;1.50;;;22.50;84.30;;;;;;4907672;29;20463;-77
2023/08/25 07:32:04;;;;;;;3.30;1.90;;;22.40;84.90;;;;;;4907664;29;20819;-77
2023/08/25 07:34:31;;;;;;;2.30;1.60;;;22.50;85.40;;;;;;4907773;29;20488;-78
2023/08/25 07:36:58;;;;;;;2.07;1.50;;;22.40;85.40;;;;;;4908283;29;20456;-78
2023/08/25 07:39:25;;;;;;;2.33;1.70;;;22.30;85.30;;;;;;4907591;29;20545;-78
2023/08/25 07:41:52;;;;;;;2.53;1.70;;;22.10;86.40;;;;;;4907740;29;21013;-79
2023/08/25 07:44:20;;;;;;;2.70;1.83;;;22.10;86.80;;;;;;4906448;29;20493;-78
2023/08/25 07:46:47;;;;;;;2.70;1.63;;;21.90;87.00;;;;;;4905360;29;20485;-79
2023/08/25 07:49:13;;;;;;;2.40;1.60;;;21.70;87.60;;;;;;4905677;29;20461;-80
2023/08/25 07:51:40;;;;;;;2.77;2.07;;;21.50;88.50;;;;;;4906223;29;20484;-78
2023/08/25 07:54:07;;;;;;;3.03;2.23;;;21.50;88.60;;;;;;4905930;29;20446;-78
2023/08/25 07:56:33;;;;;;;2.20;1.70;;;21.40;89.20;;;;;;4903686;29;20943;-78
2023/08/25 07:59:00;;;;;;;4.17;1.73;;;21.50;89.30;;;;;;4903977;29;20450;-78
2023/08/25 08:01:28;;;;;;;3.10;2.17;;;21.60;89.30;;;;;;4904898;29;20484;-78
2023/08/25 08:03:55;;;;;;;4.10;2.00;;;21.60;88.60;;;;;;4907210;29;20454;-78
2023/08/25 08:06:21;;;;;;;2.20;1.50;;;21.70;88.80;;;;;;4906962;29;20596;-78
2023/08/25 08:08:48;;;;;;;2.73;1.70;;;21.70;88.70;;;;;;4906614;29;20460;-78
2023/08/25 08:11:15;;;;;;;3.00;1.53;;;21.80;88.10;;;;;;4905330;29;20469;-78
2023/08/25 08:13:41;;;;;;;3.17;1.43;;;21.60;88.20;;;;;;4904810;29;20450;-78
2023/08/25 08:16:08;;;;;;;2.00;1.50;;;21.60;88.50;;;;;;4905742;29;20966;-77
2023/08/25 08:18:36;;;;;;;2.80;1.67;;;21.50;88.50;;;;;;4905958;29;20449;-78
2023/08/25 08:21:03;;;;;;;2.70;1.70;;;21.40;89.40;;;;;;4906661;29;20477;-77
2023/08/25 08:23:30;;;;;;;2.63;1.70;;;21.40;89.20;;;;;;4908234;29;20462;-79
2023/08/25 08:25:57;;;;;;;2.43;1.70;;;21.20;89.90;;;;;;4907051;29;20485;-78
2023/08/25 08:28:24;;;;;;;2.93;1.80;;;21.20;90.10;;;;;;4906855;29;20461;-77
2023/08/25 08:30:51;;;;;;;3.53;1.90;;;21.00;90.80;;;;;;4903395;29;20465;-77
2023/08/25 08:33:18;;;;;;;3.07;1.87;;;21.10;90.60;;;;;;4902934;29;20461;-78
2023/08/25 08:35:46;;;;;;;4.47;1.57;;;21.20;90.00;;;;;;4902788;29;20453;-78
2023/08/25 08:38:12;;;;;;;2.70;1.60;;;21.40;89.20;;;;;;4902385;29;20955;-78
2023/08/25 08:40:40;;;;;;;2.73;1.97;;;21.50;88.60;;;;;;4903598;29;20947;-78
2023/08/25 08:43:10;;;;;;;2.40;1.60;;;21.50;89.00;;;;;;4907693;29;20461;-77
2023/08/25 08:45:40;;;;;;;4.00;2.03;;;21.60;88.20;;;;;;4903255;29;20493;-77
2023/08/25 08:48:07;;;;;;;2.60;1.50;;;21.60;88.60;;;;;;4901246;29;20458;-76
2023/08/25 08:50:34;;;;;;;4.57;2.30;;;21.70;87.90;;;;;;4902501;29;20450;-80
2023/08/25 08:53:04;;;;;;;3.10;1.80;;;21.70;87.40;;;;;;4903843;29;20505;-78
2023/08/25 08:55:33;;;;;;;3.33;1.97;;;21.80;87.20;;;;;;4906420;29;20964;-78
2023/08/25 08:58:00;;;;;;;2.50;1.67;;;21.80;87.90;;;;;;4906154;29;20453;-79
2023/08/25 09:00:28;;;;;;;3.53;1.77;;;21.90;87.30;;;;;;4902703;29;20449;-78
2023/08/25 09:02:58;;;;;;;3.00;1.67;;;22.00;87.60;;;;;;4903012;29;20441;-77
2023/08/25 09:05:28;;;;;;;2.27;1.40;;;22.00;87.40;;;;;;4901892;29;21007;-78
2023/08/25 09:08:04;;;;;;;2.17;1.47;;;21.90;87.50;;;;;;4903045;29;20452;-78
2023/08/25 09:10:30;;;;;;;2.43;1.53;;;21.70;88.60;;;;;;4900737;29;20501;-78
2023/08/25 09:12:57;;;;;;;2.77;1.60;;;21.70;88.90;;;;;;4901598;29;20453;-78
2023/08/25 09:15:26;;;;;;;2.17;1.47;;;21.70;88.50;;;;;;4902319;29;20450;-78
2023/08/25 09:18:00;;;;;;;2.73;1.47;;;21.60;88.80;;;;;;4902483;29;20454;-77
2023/08/25 09:20:27;;;;;;;3.17;2.17;;;21.70;88.30;;;;;;4900245;29;20465;-80
2023/08/25 09:22:56;;;;;;;2.40;1.70;;;21.80;88.80;;;;;;4901056;29;20450;-78
2023/08/25 09:25:25;;;;;;;2.90;1.80;;;21.70;88.30;;;;;;4900402;29;20851;-78
2023/08/25 09:27:57;;;;;;;4.50;2.40;;;21.70;89.00;;;;;;4900189;29;20500;-76
2023/08/25 09:30:34;;;;;;;2.10;1.37;;;21.80;89.10;;;;;;4900715;29;20516;-78
2023/08/25 09:33:05;;;;;;;2.50;1.50;;;21.70;88.70;;;;;;4904134;29;20461;-79
2023/08/25 09:35:32;;;;;;;2.70;2.00;;;21.80;88.30;;;;;;4901808;29;20486;-77
2023/08/25 09:37:59;;;;;;;2.43;1.83;;;22.00;88.60;;;;;;4900375;29;20453;-77
2023/08/25 09:40:28;;;;;;;3.07;1.90;;;22.20;88.10;;;;;;4900250;29;20824;-78
2023/08/25 09:42:58;;;;;;;2.30;1.70;;;22.20;88.20;;;;;;4900734;29;20540;-77
2023/08/25 09:45:28;;;;;;;3.03;2.03;;;22.10;88.60;;;;;;4903672;29;20460;-77
2023/08/25 09:47:55;;;;;;;3.57;2.53;;;22.20;88.00;;;;;;4900462;29;20576;-76
2023/08/25 09:50:22;;;;;;;2.00;1.50;;;22.40;87.70;;;;;;4903862;29;20461;-79
2023/08/25 09:52:53;;;;;;;3.53;1.53;;;22.50;87.70;;;;;;4904749;29;20454;-80
2023/08/25 09:55:21;;;;;;;2.70;1.50;;;22.60;87.30;;;;;;4900065;29;20548;-78
2023/08/25 09:57:50;;;;;;;2.97;1.60;;;22.90;86.80;;;;;;4902196;29;20875;-78
2023/08/25 10:00:19;;;;;;;2.50;1.50;;;22.90;85.90;;;;;;4899547;29;20456;-78
2023/08/25 10:02:46;;;;;;;2.10;1.40;;;22.90;85.90;;;;;;4900006;29;20469;-77
2023/08/25 10:05:13;;;;;;;2.07;1.30;;;22.90;86.30;;;;;;4900751;29;20822;-79
2023/08/25 10:07:42;;;;;;;1.90;1.50;;;23.00;86.40;;;;;;4899740;29;20481;-77
2023/08/25 10:10:10;;;;;;;2.20;1.37;;;23.20;86.70;;;;;;4899918;29;20521;-78
2023/08/25 10:12:38;;;;;;;2.00;1.30;;;23.20;85.30;;;;;;4899589;29;20497;-76
2023/08/25 10:15:10;;;;;;;2.77;1.53;;;23.20;86.30;;;;;;4975800;23;20501;-70
2023/08/25 10:17:37;;;;;;;2.40;1.57;;;23.40;86.10;;;;;;4918330;29;20513;-70
2023/08/25 10:20:09;;;;;;;4.33;2.00;;;23.60;85.10;;;;;;4918596;29;20528;-70
2023/08/25 10:22:36;;;;;;;2.27;1.50;;;23.50;85.20;;;;;;4918301;29;20449;-70
2023/08/25 10:25:04;;;;;;;2.20;1.57;;;23.60;84.50;;;;;;4917347;29;20473;-69
2023/08/25 10:27:31;;;;;;;3.13;1.47;;;23.50;84.80;;;;;;4917663;29;20536;-69
2023/08/25 10:30:00;;;;;;;2.30;1.53;;;23.50;85.30;;;;;;4917618;29;20448;-70
2023/08/25 10:32:48;;;;;;;2.50;1.47;;;23.50;85.30;;;;;;4917843;29;20449;-70
2023/08/25 10:35:14;;;;;;;2.20;1.67;;;23.40;85.30;;;;;;4917770;29;20532;-69
2023/08/25 10:37:41;;;;;;;3.80;1.40;;;23.30;85.50;;;;;;4917733;29;20508;-69
2023/08/25 10:40:10;;;;;;;3.00;1.63;;;23.30;85.90;;;;;;4917335;29;20962;-70
2023/08/25 10:42:37;;;;;;;2.03;1.40;;;23.20;85.90;;;;;;4917533;29;20459;-69
2023/08/25 10:45:06;;;;;;;2.73;1.67;;;23.30;85.20;;;;;;4917212;29;20517;-68
2023/08/25 10:47:33;;;;;;;2.40;1.70;;;23.30;85.90;;;;;;4917399;29;20488;-68
2023/08/25 10:50:04;;;;;;;2.30;1.30;;;23.20;84.70;;;;;;4917439;29;20453;-68
2023/08/25 10:52:31;;;;;;;2.80;1.60;;;23.20;85.40;;;;;;4917067;29;20536;-69
2023/08/25 10:54:57;;;;;;;3.10;1.37;;;23.30;85.10;;;;;;4916881;29;21054;-68
2023/08/25 10:57:41;;;;;;;2.53;1.53;;;23.30;85.00;;;;;;4916940;29;20453;-68
2023/08/25 11:00:29;;;;;;;2.37;1.50;;;23.50;84.50;;;;;;4917366;29;20528;-68
2023/08/25 11:02:56;;;;;;;2.30;1.50;;;23.50;83.40;;;;;;4917324;29;20491;-69
2023/08/25 11:05:44;;;;;;;2.20;1.60;;;23.50;83.60;;;;;;4916905;29;20552;-68
2023/08/25 11:08:27;;;;;;;2.00;1.50;;;23.50;84.70;;;;;;4916811;29;20928;-69
2023/08/25 11:11:11;;;;;;;2.10;1.50;;;23.60;84.80;;;;;;4917262;29;20791;-68
2023/08/25 11:13:40;;;;;;;2.43;1.93;;;23.60;84.40;;;;;;4916966;29;20504;-68
2023/08/25 11:16:12;;;;;;;2.37;2.10;;;23.50;84.00;;;;;;4917158;29;20474;-69
2023/08/25 11:18:40;;;;;;;2.20;1.60;;;23.40;84.60;;;;;;4917031;29;20449;-69
2023/08/25 11:21:09;;;;;;;3.13;1.70;;;23.40;84.30;;;;;;4917132;29;20472;-69
2023/08/25 11:23:37;;;;;;;2.37;2.07;;;23.30;85.10;;;;;;4916639;29;20468;-69
2023/08/25 11:26:04;;;;;;;2.50;1.67;;;23.40;85.10;;;;;;4916956;29;20448;-69
2023/08/25 11:28:30;;;;;;;2.40;1.70;;;23.60;84.60;;;;;;4916886;29;20502;-69
2023/08/25 11:30:58;;;;;;;2.10;1.53;;;23.60;84.30;;;;;;4917081;29;20457;-69
2023/08/25 11:33:25;;;;;;;2.63;1.60;;;23.70;85.10;;;;;;4917009;29;20472;-68
2023/08/25 11:35:52;;;;;;;2.43;1.70;;;24.00;84.70;;;;;;4916999;29;20453;-70
2023/08/25 11:38:21;;;;;;;2.20;1.80;;;24.20;83.40;;;;;;4916955;29;20516;-69
2023/08/25 11:40:47;;;;;;;3.73;1.93;;;24.30;83.20;;;;;;4916961;29;20456;-69
2023/08/25 11:43:14;;;;;;;3.37;2.00;;;24.40;82.90;;;;;;4916540;29;20946;-69
2023/08/25 11:45:45;;;;;;;2.83;2.20;;;24.40;82.30;;;;;;4916687;29;20954;-69
2023/08/25 11:48:13;;;;;;;2.03;1.53;;;24.20;83.40;;;;;;4916813;29;20488;-69
2023/08/25 11:50:42;;;;;;;2.43;1.70;;;24.30;83.20;;;;;;4916912;29;20475;-70
2023/08/25 11:53:09;;;;;;;2.20;1.87;;;24.20;82.30;;;;;;4916719;29;20453;-70
2023/08/25 11:55:37;;;;;;;2.27;1.97;;;24.30;82.70;;;;;;4916724;29;20449;-70
2023/08/25 11:58:08;;;;;;;2.30;2.00;;;24.50;84.00;;;;;;4916753;29;20453;-71
2023/08/25 12:00:38;;;;;;;2.33;1.97;;;24.80;81.80;;;;;;4916728;29;20452;-71
2023/08/25 12:03:05;;;;;;;2.40;1.57;;;25.10;81.50;;;;;;4916640;29;20484;-72
2023/08/25 12:05:35;;;;;;;2.50;1.90;;;25.30;81.40;;;;;;4916517;29;20477;-71
2023/08/25 12:08:02;;;;;;;2.47;1.60;;;25.60;79.90;;;;;;4916579;29;20492;-71
2023/08/25 12:10:33;;;;;;;2.33;1.83;;;25.70;79.40;;;;;;4916624;29;20899;-70
2023/08/25 12:13:02;;;;;;;3.00;2.20;;;25.60;79.20;;;;;;4920134;29;20464;-70
2023/08/25 12:15:39;;;;;;;2.30;1.77;;;25.50;80.00;;;;;;4919868;29;20489;-71
2023/08/25 12:18:06;;;;;;;3.33;1.67;;;25.30;79.60;;;;;;4920226;29;20432;-69
2023/08/25 12:20:33;;;;;;;3.10;1.97;;;25.10;80.70;;;;;;4919980;29;20445;-69
2023/08/25 12:23:00;;;;;;;2.60;1.90;;;25.10;80.40;;;;;;4919963;29;20448;-69
2023/08/25 12:25:27;;;;;;;2.30;1.90;;;25.00;79.70;;;;;;4919820;29;21005;-70
2023/08/25 12:27:55;;;;;;;2.97;1.90;;;25.00;80.20;;;;;;4919567;29;20986;-69
2023/08/25 12:30:25;;;;;;;3.70;2.60;;;25.00;79.80;;;;;;4919881;29;20449;-69
2023/08/25 12:32:52;;;;;;;2.43;2.00;;;24.90;79.80;;;;;;4919964;29;20453;-69
2023/08/25 12:35:19;;;;;;;3.17;2.03;;;24.80;80.20;;;;;;4919837;29;20472;-69
2023/08/25 12:37:45;;;;;;;2.60;1.90;;;24.70;80.10;;;;;;4919666;29;20445;-69
2023/08/25 12:40:12;;;;;;;2.37;1.80;;;24.60;79.60;;;;;;4919275;29;20796;-69
2023/08/25 12:42:39;;;;;;;2.50;1.80;;;24.70;79.00;;;;;;4919498;29;20460;-70
2023/08/25 12:45:07;;;;;;;2.10;1.67;;;24.70;78.60;;;;;;4919432;29;20472;-70
2023/08/25 12:47:35;;;;;;;2.50;1.83;;;24.80;79.30;;;;;;4919407;29;20488;-70
2023/08/25 12:50:02;;;;;;;2.70;1.90;;;24.90;79.80;;;;;;4919516;29;20863;-70
2023/08/25 12:52:33;;;;;;;2.73;2.07;;;25.00;78.80;;;;;;4919368;29;20456;-69
2023/08/25 12:54:59;;;;;;;2.73;1.87;;;25.00;78.10;;;;;;4919110;29;20488;-69
2023/08/25 12:57:26;;;;;;;3.13;1.67;;;25.10;77.80;;;;;;4919321;29;20492;-69
2023/08/25 12:59:53;;;;;;;3.13;1.90;;;25.20;77.80;;;;;;4919223;29;20444;-69
2023/08/25 13:02:19;;;;;;;2.80;2.23;;;25.40;76.80;;;;;;4919185;29;20455;-69
2023/08/25 13:04:50;;;;;;;2.73;2.17;;;25.40;77.50;;;;;;4919072;29;20476;-69
2023/08/25 13:07:20;;;;;;;2.83;1.90;;;25.40;77.60;;;;;;4919003;29;20477;-69
2023/08/25 13:09:46;;;;;;;3.43;2.07;;;25.60;77.00;;;;;;4918721;29;20969;-70
2023/08/25 13:12:13;;;;;;;3.53;2.30;;;25.60;76.70;;;;;;4919149;29;20448;-70
2023/08/25 13:14:40;;;;;;;2.77;2.10;;;25.60;76.60;;;;;;4918679;29;20544;-70
2023/08/25 13:17:06;;;;;;;2.70;2.03;;;25.70;76.50;;;;;;4918956;29;20441;-70
2023/08/25 13:19:33;;;;;;;1.90;1.40;;;25.70;75.30;;;;;;4918994;29;20833;-70
2023/08/25 13:22:01;;;;;;;2.30;1.73;;;25.80;74.90;;;;;;4918841;29;20445;-70
2023/08/25 13:24:28;;;;;;;2.23;1.43;;;25.90;75.50;;;;;;4918716;29;20849;-70
2023/08/25 13:26:55;;;;;;;3.40;1.87;;;25.80;73.90;;;;;;4918666;29;20445;-70
2023/08/25 13:29:21;;;;;;;2.40;2.13;;;25.90;75.40;;;;;;4918821;29;20883;-70
2023/08/25 13:31:48;;;;;;;2.53;1.87;;;25.90;74.60;;;;;;4918645;29;20449;-69
2023/08/25 13:34:14;;;;;;;2.93;1.93;;;26.00;73.40;;;;;;4918570;29;20516;-70
2023/08/25 13:36:41;;;;;;;2.80;2.10;;;26.10;74.10;;;;;;4918588;29;20456;-68
2023/08/25 13:39:09;;;;;;;2.20;1.53;;;26.20;74.10;;;;;;4918527;29;20445;-70
2023/08/25 13:41:36;;;;;;;4.03;1.60;;;26.40;74.60;;;;;;4918448;29;20455;-71
2023/08/25 13:44:03;;;;;;;2.77;1.90;;;26.60;72.60;;;;;;4918490;29;20890;-70
2023/08/25 13:46:30;;;;;;;2.40;1.87;;;26.70;71.40;;;;;;4918473;29;20488;-71
2023/08/25 13:48:57;;;;;;;3.30;1.70;;;26.90;71.50;;;;;;4918214;29;20493;-70
2023/08/25 13:51:23;;;;;;;2.43;1.83;;;26.90;70.90;;;;;;4918346;29;20445;-70
2023/08/25 13:53:50;;;;;;;3.40;1.97;;;26.90;72.80;;;;;;4918142;29;20469;-70
2023/08/25 13:56:18;;;;;;;3.97;1.77;;;26.90;70.00;;;;;;4917895;29;20830;-70
2023/08/25 13:58:45;;;;;;;2.37;1.90;;;26.90;70.80;;;;;;4918157;29;20448;-71
2023/08/25 14:01:11;;;;;;;2.37;1.93;;;27.00;70.80;;;;;;4918135;29;20467;-70
2023/08/25 14:03:38;;;;;;;2.43;1.70;;;27.20;70.00;;;;;;4917984;29;20469;-70
2023/08/25 14:06:05;;;;;;;2.63;2.10;;;27.30;69.00;;;;;;4917695;29;20831;-70
2023/08/25 14:08:32;;;;;;;3.20;1.90;;;27.40;69.00;;;;;;4918088;29;20519;-70
2023/08/25 14:10:58;;;;;;;2.23;1.50;;;27.30;70.30;;;;;;4917963;29;20472;-71
2023/08/25 14:13:26;;;;;;;2.20;1.73;;;27.20;68.80;;;;;;4917788;29;20452;-71
2023/08/25 14:15:53;;;;;;;2.40;1.90;;;27.30;69.40;;;;;;4917856;29;20444;-71
2023/08/25 14:18:20;;;;;;;2.30;1.90;;;27.30;68.70;;;;;;4917748;29;20525;-71
2023/08/25 14:20:47;;;;;;;2.60;1.80;;;27.20;69.40;;;;;;4917781;29;20449;-71
2023/08/25 14:23:13;;;;;;;2.70;1.80;;;27.40;68.20;;;;;;4917620;29;20440;-71
2023/08/25 14:25:40;;;;;;;2.07;1.60;;;27.40;68.20;;;;;;4917668;29;20861;-71
2023/08/25 14:28:08;;;;;;;2.33;1.80;;;27.40;67.60;;;;;;4917640;29;20480;-71
2023/08/25 14:30:38;;;;;;;3.10;2.13;;;27.60;68.50;;;;;;4917534;29;20455;-72
2023/08/25 14:33:05;;;;;;;2.30;1.90;;;27.80;67.30;;;;;;4917565;29;20452;-70
2023/08/25 14:35:31;;;;;;;3.60;2.00;;;27.80;68.10;;;;;;4916844;29;20469;-71
2023/08/25 14:37:59;;;;;;;2.93;2.50;;;27.80;67.40;;;;;;4917193;29;20452;-70
2023/08/25 14:40:25;;;;;;;3.10;1.87;;;27.80;67.30;;;;;;4917423;29;20512;-70
2023/08/25 14:42:52;;;;;;;2.27;1.70;;;27.80;67.40;;;;;;4917399;29;20455;-71
2023/08/25 14:45:19;;;;;;;2.40;1.77;;;27.70;67.40;;;;;;4917339;29;20487;-71
2023/08/25 14:47:47;;;;;;;2.20;1.80;;;27.70;68.20;;;;;;4917252;29;20896;-71
2023/08/25 14:50:14;;;;;;;4.00;2.13;;;27.80;67.10;;;;;;4917120;29;20951;-71
2023/08/25 14:52:40;;;;;;;2.30;1.83;;;27.90;67.20;;;;;;4917380;29;20476;-70
2023/08/25 14:55:08;;;;;;;2.10;1.40;;;27.90;68.10;;;;;;4917278;29;20481;-71
2023/08/25 14:57:34;;;;;;;3.10;1.83;;;27.90;68.00;;;;;;4917452;29;20445;-71
2023/08/25 15:00:03;;;;;;;2.70;2.40;;;27.90;67.50;;;;;;4917350;29;20452;-73
2023/08/25 15:02:33;;;;;;;2.60;1.90;;;28.00;67.60;;;;;;4916810;29;20559;-72
2023/08/25 15:05:02;;;;;;;3.63;2.27;;;28.00;66.90;;;;;;4916804;29;20835;-72
2023/08/25 15:07:29;;;;;;;2.27;1.87;;;28.10;67.60;;;;;;4917041;29;20456;-72
2023/08/25 15:09:55;;;;;;;2.87;2.00;;;28.30;66.80;;;;;;4917107;29;20451;-71
2023/08/25 15:12:23;;;;;;;2.47;1.90;;;28.40;66.50;;;;;;4916941;29;20950;-72
2023/08/25 15:14:50;;;;;;;2.50;1.80;;;28.70;66.50;;;;;;4916717;29;21031;-71
2023/08/25 15:17:17;;;;;;;3.87;2.03;;;29.00;65.70;;;;;;4917246;29;20453;-72
2023/08/25 15:19:43;;;;;;;2.73;2.10;;;29.10;65.50;;;;;;4916982;29;20445;-72
2023/08/25 15:22:12;;;;;;;2.20;1.70;;;29.30;64.70;;;;;;4916950;29;20464;-72
2023/08/25 15:24:39;;;;;;;2.60;2.00;;;29.80;64.70;;;;;;4916896;29;20468;-72
2023/08/25 15:27:06;;;;;;;2.23;1.83;;;29.80;64.60;;;;;;4916996;29;20449;-72
2023/08/25 15:29:33;;;;;;;1.90;1.57;;;29.70;63.90;;;;;;4916995;29;20563;-72
2023/08/25 15:31:59;;;;;;;3.13;1.93;;;29.70;64.10;;;;;;4916862;29;20457;-71
2023/08/25 15:34:26;;;;;;;2.67;1.87;;;29.90;64.30;;;;;;4916587;29;21001;-72
2023/08/25 15:36:53;;;;;;;2.87;2.43;;;29.90;64.20;;;;;;4916527;29;20448;-72
2023/08/25 15:39:21;;;;;;;2.33;1.80;;;29.50;66.10;;;;;;4916894;29;20449;-71
2023/08/25 15:41:48;;;;;;;2.40;2.00;;;29.10;66.20;;;;;;4916882;29;20818;-72
2023/08/25 15:44:15;;;;;;;2.93;2.23;;;29.10;65.90;;;;;;4917067;29;20476;-72
2023/08/25 15:46:42;;;;;;;2.77;2.50;;;28.90;66.40;;;;;;4918125;29;20474;-71
2023/08/25 15:49:09;;;;;;;2.37;2.10;;;28.50;66.70;;;;;;4920347;29;20547;-71
2023/08/25 15:51:36;;;;;;;4.00;2.20;;;28.40;67.50;;;;;;4920137;29;20453;-71
2023/08/25 15:54:02;;;;;;;3.37;2.30;;;28.40;68.00;;;;;;4920198;29;20469;-72
2023/08/25 15:56:30;;;;;;;2.80;2.50;;;28.30;69.30;;;;;;4920103;29;20946;-72
2023/08/25 15:58:57;;;;;;;5.10;2.27;;;28.20;68.00;;;;;;4920368;29;20500;-72
2023/08/25 16:01:24;;;;;;;2.27;1.87;;;28.10;69.40;;;;;;4920339;29;20453;-72
2023/08/25 16:03:50;;;;;;;2.97;2.20;;;28.20;69.70;;;;;;4920190;29;20465;-72
2023/08/25 16:06:17;;;;;;;4.27;2.47;;;28.10;69.70;;;;;;4920171;29;20484;-71
2023/08/25 16:08:44;;;;;;;2.70;2.40;;;28.10;70.30;;;;;;4920205;29;20990;-72
2023/08/25 16:11:11;;;;;;;2.33;2.07;;;28.00;69.50;;;;;;4920141;29;20512;-72
2023/08/25 16:13:40;;;;;;;5.40;2.10;;;27.90;69.20;;;;;;4944033;23;20507;-78
2023/08/25 16:16:06;;;;;;;2.40;2.03;;;27.70;69.30;;;;;;4924142;29;20472;-79
2023/08/25 16:18:35;;;;;;;2.80;2.10;;;27.80;69.50;;;;;;4924034;29;20444;-79
2023/08/25 16:21:02;;;;;;;3.87;2.20;;;27.90;69.70;;;;;;4923550;29;20872;-79
2023/08/25 16:23:29;;;;;;;2.23;2.03;;;27.80;69.40;;;;;;4924238;29;20449;-80
2023/08/25 16:25:56;;;;;;;3.00;2.37;;;27.90;69.70;;;;;;4907769;29;20451;-79
2023/08/25 16:28:23;;;;;;;2.63;2.30;;;28.00;69.80;;;;;;4903466;29;20497;-80
2023/08/25 16:30:54;;;;;;;3.20;2.40;;;28.10;68.80;;;;;;4908352;29;20460;-80
2023/08/25 16:33:21;;;;;;;3.30;2.17;;;28.00;69.20;;;;;;4905061;29;20877;-78
2023/08/25 16:35:48;;;;;;;2.93;2.10;;;28.10;68.90;;;;;;4903009;29;20465;-79
2023/08/25 16:38:15;;;;;;;2.30;2.10;;;28.00;69.80;;;;;;4904190;29;20959;-79
2023/08/25 16:40:43;;;;;;;2.70;2.23;;;27.90;69.80;;;;;;4903478;29;20472;-79
2023/08/25 16:43:09;;;;;;;3.33;2.00;;;27.90;69.30;;;;;;4904289;29;20464;-79
2023/08/25 16:45:36;;;;;;;3.70;2.43;;;27.70;70.30;;;;;;4904450;29;20469;-78
2023/08/25 16:48:06;;;;;;;2.60;2.17;;;27.60;70.40;;;;;;4905661;29;20485;-79
2023/08/25 16:50:33;;;;;;;2.33;1.90;;;27.60;69.30;;;;;;4906456;29;20497;-78
2023/08/25 16:53:01;;;;;;;2.50;1.93;;;27.50;69.50;;;;;;4903643;29;20458;-79